Time;durP1;ratioP1;P1;durP2;ratioP2;P2;SDS_P1;SDS_P2;PMS_P1;PMS_P2;Temp;Humidity;BMP_temperature;BMP_pressure;BME280_temperature;BME280_humidity;BME280_pressure;Samples;Min_cycle;Max_cycle;Signal;HPM_P1;HPM_P2
2023/06/19 00:00:16;;;;;;;8.55;6.82;;;;;;;;;;5052063;28;20061;-57
2023/06/19 00:02:43;;;;;;;8.05;6.78;;;;;;;;;;5052659;28;20080;-58
2023/06/19 00:05:10;;;;;;;10.05;7.43;;;;;;;;;;5053050;28;20057;-58
2023/06/19 00:07:39;;;;;;;9.18;6.30;;;;;;;;;;5035887;28;20088;-58
2023/06/19 00:10:06;;;;;;;8.80;6.15;;;;;;;;;;5054442;28;20103;-57
2023/06/19 00:12:32;;;;;;;10.10;6.38;;;;;;;;;;5052488;28;20102;-58
2023/06/19 00:14:58;;;;;;;9.68;7.07;;;;;;;;;;5052543;28;20366;-60
2023/06/19 00:17:26;;;;;;;9.02;6.60;;;;;;;;;;5051940;28;20044;-58
2023/06/19 00:19:52;;;;;;;9.18;6.28;;;;;;;;;;5054096;28;20048;-57
2023/06/19 00:22:18;;;;;;;8.98;7.53;;;;;;;;;;5051424;28;20056;-57
2023/06/19 00:24:44;;;;;;;11.77;7.38;;;;;;;;;;5052772;28;20045;-57
2023/06/19 00:27:10;;;;;;;10.25;6.78;;;;;;;;;;5053051;28;20431;-57
2023/06/19 00:29:37;;;;;;;11.85;7.22;;;;;;;;;;5051472;28;20059;-57
2023/06/19 00:32:03;;;;;;;8.38;5.97;;;;;;;;;;5052272;28;20052;-58
2023/06/19 00:34:29;;;;;;;10.65;7.75;;;;;;;;;;5051098;28;20041;-58
2023/06/19 00:36:56;;;;;;;8.48;6.60;;;;;;;;;;5035600;28;20055;-56
2023/06/19 00:39:26;;;;;;;9.25;6.82;;;;;;;;;;5052447;28;20758;-56
2023/06/19 00:41:52;;;;;;;8.98;7.03;;;;;;;;;;5049650;28;20045;-57
2023/06/19 00:44:18;;;;;;;7.57;6.68;;;;;;;;;;5050064;28;20044;-57
2023/06/19 00:46:45;;;;;;;12.35;6.85;;;;;;;;;;5049725;28;20073;-57
2023/06/19 00:49:11;;;;;;;9.35;6.65;;;;;;;;;;5047653;28;20123;-57
2023/06/19 00:51:37;;;;;;;10.18;6.88;;;;;;;;;;5045825;28;20443;-58
2023/06/19 00:54:03;;;;;;;9.00;6.47;;;;;;;;;;5045857;28;20049;-57
2023/06/19 00:56:29;;;;;;;9.48;6.63;;;;;;;;;;5046747;28;20045;-57
2023/06/19 00:58:56;;;;;;;7.75;6.07;;;;;;;;;;5053228;28;20045;-57
2023/06/19 01:01:23;;;;;;;9.48;6.88;;;;;;;;;;5050480;28;20431;-58
2023/06/19 01:03:49;;;;;;;8.45;6.60;;;;;;;;;;5051832;28;20122;-57
2023/06/19 01:06:24;;;;;;;8.30;6.45;;;;;;;;;;5046357;28;20888;-57
2023/06/19 01:08:56;;;;;;;10.05;7.78;;;;;;;;;;5035044;28;20092;-56
2023/06/19 01:11:24;;;;;;;9.32;6.40;;;;;;;;;;5039806;28;20094;-56
2023/06/19 01:13:59;;;;;;;11.27;6.85;;;;;;;;;;5052286;28;20053;-56
2023/06/19 01:16:27;;;;;;;10.65;8.23;;;;;;;;;;5050132;28;20059;-57
2023/06/19 01:18:53;;;;;;;7.70;6.35;;;;;;;;;;5050442;28;20501;-57
2023/06/19 01:21:19;;;;;;;8.40;6.57;;;;;;;;;;5049798;28;20041;-57
2023/06/19 01:23:46;;;;;;;8.43;6.63;;;;;;;;;;5050946;28;20057;-57
2023/06/19 01:26:13;;;;;;;10.00;6.43;;;;;;;;;;5050522;28;20504;-57
2023/06/19 01:28:40;;;;;;;10.77;6.90;;;;;;;;;;5049696;28;20044;-57
2023/06/19 01:31:11;;;;;;;8.30;6.70;;;;;;;;;;5047823;28;20128;-57
2023/06/19 01:33:38;;;;;;;10.27;6.85;;;;;;;;;;5044232;28;20130;-57
2023/06/19 01:36:05;;;;;;;7.88;6.45;;;;;;;;;;5051551;28;20067;-56
2023/06/19 01:38:31;;;;;;;13.10;6.72;;;;;;;;;;5052135;28;20061;-56
2023/06/19 01:40:58;;;;;;;9.40;6.53;;;;;;;;;;5051422;28;20061;-57
2023/06/19 01:43:25;;;;;;;8.88;6.57;;;;;;;;;;5050019;28;20063;-56
2023/06/19 01:45:52;;;;;;;9.82;7.30;;;;;;;;;;5052847;28;20053;-56
2023/06/19 01:48:18;;;;;;;7.72;6.88;;;;;;;;;;5051260;28;20163;-58
2023/06/19 01:50:47;;;;;;;9.93;6.32;;;;;;;;;;5050737;28;20044;-57
2023/06/19 01:53:14;;;;;;;9.20;6.40;;;;;;;;;;5051675;28;20102;-57
2023/06/19 01:55:40;;;;;;;8.00;6.10;;;;;;;;;;5051671;28;20091;-57
2023/06/19 01:58:06;;;;;;;9.13;6.70;;;;;;;;;;5051112;28;20056;-57
2023/06/19 02:00:35;;;;;;;9.48;6.90;;;;;;;;;;5049598;28;20176;-57
2023/06/19 02:03:10;;;;;;;8.30;6.18;;;;;;;;;;5051787;28;20049;-57
2023/06/19 02:05:39;;;;;;;7.78;5.90;;;;;;;;;;5051554;28;20143;-57
2023/06/19 02:08:05;;;;;;;9.98;6.88;;;;;;;;;;5049288;28;20071;-59
2023/06/19 02:10:31;;;;;;;11.63;6.93;;;;;;;;;;5042950;28;20045;-57
2023/06/19 02:12:57;;;;;;;10.95;7.75;;;;;;;;;;5051748;28;20080;-57
2023/06/19 02:15:23;;;;;;;11.40;7.57;;;;;;;;;;5051860;28;20095;-57
2023/06/19 02:17:54;;;;;;;10.45;7.18;;;;;;;;;;5050315;28;20080;-57
2023/06/19 02:20:21;;;;;;;10.18;7.15;;;;;;;;;;5048085;28;20059;-57
2023/06/19 02:22:47;;;;;;;7.55;6.15;;;;;;;;;;5049406;28;20068;-57
2023/06/19 02:25:13;;;;;;;9.63;6.85;;;;;;;;;;5033147;28;20432;-56
2023/06/19 02:27:39;;;;;;;9.90;7.78;;;;;;;;;;5046574;28;20068;-57
2023/06/19 02:30:06;;;;;;;11.27;7.60;;;;;;;;;;5050170;28;20059;-58
2023/06/19 02:32:32;;;;;;;9.93;7.18;;;;;;;;;;5064061;28;20044;-57
2023/06/19 02:34:58;;;;;;;12.80;7.95;;;;;;;;;;5051897;28;20128;-59
2023/06/19 02:37:24;;;;;;;8.15;6.82;;;;;;;;;;5049246;28;20791;-57
2023/06/19 02:39:50;;;;;;;8.27;7.05;;;;;;;;;;5052018;28;20053;-57
2023/06/19 02:42:16;;;;;;;11.27;8.23;;;;;;;;;;5049129;28;20040;-57
2023/06/19 02:44:43;;;;;;;11.88;7.70;;;;;;;;;;5030294;28;20052;-57
2023/06/19 02:47:09;;;;;;;8.98;7.20;;;;;;;;;;5049433;28;20044;-57
2023/06/19 02:49:35;;;;;;;8.68;6.90;;;;;;;;;;5050885;28;20057;-57
2023/06/19 02:52:01;;;;;;;9.95;7.65;;;;;;;;;;5038093;28;20049;-58
2023/06/19 02:54:27;;;;;;;9.88;7.57;;;;;;;;;;5047300;28;20040;-57
2023/06/19 02:56:53;;;;;;;13.07;7.20;;;;;;;;;;5048577;28;20135;-57
2023/06/19 02:59:19;;;;;;;9.18;6.78;;;;;;;;;;5028266;28;20044;-58
2023/06/19 03:01:45;;;;;;;7.35;6.15;;;;;;;;;;5045698;28;20114;-57
2023/06/19 03:04:12;;;;;;;11.25;6.90;;;;;;;;;;5049845;28;20053;-57
2023/06/19 03:06:39;;;;;;;8.38;5.82;;;;;;;;;;5049878;28;20106;-57
2023/06/19 03:09:11;;;;;;;8.93;6.63;;;;;;;;;;5040129;28;20060;-57
2023/06/19 03:11:38;;;;;;;9.68;6.25;;;;;;;;;;5047493;28;20504;-57
2023/06/19 03:14:07;;;;;;;8.07;5.88;;;;;;;;;;5052022;28;20416;-57
2023/06/19 03:16:33;;;;;;;6.95;5.47;;;;;;;;;;5054509;28;20052;-56
2023/06/19 03:18:59;;;;;;;7.85;5.45;;;;;;;;;;5053900;28;20041;-57
2023/06/19 03:21:25;;;;;;;7.05;4.90;;;;;;;;;;5053204;28;20159;-57
2023/06/19 03:23:51;;;;;;;7.35;4.43;;;;;;;;;;5057225;28;20106;-57
2023/06/19 03:26:18;;;;;;;6.57;4.40;;;;;;;;;;5055820;28;20041;-57
2023/06/19 03:28:46;;;;;;;6.22;3.90;;;;;;;;;;5053364;28;20132;-57
2023/06/19 03:31:12;;;;;;;6.35;3.45;;;;;;;;;;5050997;28;20485;-57
2023/06/19 03:33:38;;;;;;;6.28;3.47;;;;;;;;;;5048343;28;20067;-57
2023/06/19 03:36:04;;;;;;;7.28;4.07;;;;;;;;;;5052634;28;20134;-57
2023/06/19 03:38:30;;;;;;;6.72;4.05;;;;;;;;;;5054046;28;20057;-56
2023/06/19 03:40:56;;;;;;;6.72;3.78;;;;;;;;;;5051903;28;20041;-57
2023/06/19 03:43:23;;;;;;;5.25;3.40;;;;;;;;;;5053249;28;20037;-56
2023/06/19 03:45:49;;;;;;;8.00;3.40;;;;;;;;;;5054363;28;20045;-57
2023/06/19 03:48:16;;;;;;;8.32;3.70;;;;;;;;;;5053520;28;20064;-56
2023/06/19 03:50:42;;;;;;;5.85;2.92;;;;;;;;;;5050411;28;20423;-59
2023/06/19 03:53:08;;;;;;;4.90;3.03;;;;;;;;;;5051475;28;20110;-57
2023/06/19 03:55:35;;;;;;;3.88;2.55;;;;;;;;;;5037888;28;20057;-57
2023/06/19 03:58:01;;;;;;;13.05;3.78;;;;;;;;;;5052701;28;20377;-57
2023/06/19 04:00:27;;;;;;;6.28;2.60;;;;;;;;;;5053286;28;20059;-57
2023/06/19 04:02:53;;;;;;;4.35;2.70;;;;;;;;;;5048242;28;20069;-57
2023/06/19 04:05:19;;;;;;;7.35;2.55;;;;;;;;;;5054318;28;20405;-57
2023/06/19 04:07:45;;;;;;;4.10;2.40;;;;;;;;;;5054004;28;20140;-57
2023/06/19 04:10:12;;;;;;;5.72;2.53;;;;;;;;;;5054098;28;20094;-57
2023/06/19 04:12:39;;;;;;;4.22;2.83;;;;;;;;;;5050153;28;20049;-57
2023/06/19 04:15:06;;;;;;;4.32;2.60;;;;;;;;;;5053565;28;20075;-57
2023/06/19 04:17:32;;;;;;;5.18;3.10;;;;;;;;;;5048440;28;20552;-57
2023/06/19 04:19:58;;;;;;;4.60;2.80;;;;;;;;;;5053094;28;20080;-59
2023/06/19 04:22:24;;;;;;;5.22;3.58;;;;;;;;;;5050891;28;20071;-57
2023/06/19 04:24:50;;;;;;;5.47;3.08;;;;;;;;;;5027655;28;20049;-57
2023/06/19 04:27:16;;;;;;;4.18;3.15;;;;;;;;;;5051148;28;20111;-58
2023/06/19 04:29:42;;;;;;;7.28;3.65;;;;;;;;;;5049976;28;20076;-56
2023/06/19 04:32:11;;;;;;;7.55;3.63;;;;;;;;;;5052405;28;20053;-56
2023/06/19 04:34:39;;;;;;;5.78;3.60;;;;;;;;;;5051297;28;20049;-57
2023/06/19 04:37:05;;;;;;;4.22;3.35;;;;;;;;;;5054577;28;20049;-58
2023/06/19 04:39:31;;;;;;;7.65;3.65;;;;;;;;;;5052756;28;20056;-57
2023/06/19 04:41:57;;;;;;;5.20;3.70;;;;;;;;;;5054211;28;20060;-57
2023/06/19 04:44:23;;;;;;;6.05;3.53;;;;;;;;;;5052994;28;20049;-57
2023/06/19 04:46:49;;;;;;;6.18;3.75;;;;;;;;;;5045770;28;20102;-56
2023/06/19 04:49:15;;;;;;;5.10;3.55;;;;;;;;;;5052846;28;20044;-56
2023/06/19 04:51:42;;;;;;;7.07;4.50;;;;;;;;;;5053678;28;20137;-56
2023/06/19 04:54:08;;;;;;;6.03;3.78;;;;;;;;;;5050536;28;20037;-57
2023/06/19 04:56:34;;;;;;;5.25;3.97;;;;;;;;;;5052256;28;20052;-56
2023/06/19 04:59:01;;;;;;;7.45;4.53;;;;;;;;;;5051936;28;20429;-57
2023/06/19 05:01:28;;;;;;;7.35;4.25;;;;;;;;;;5053338;28;20052;-57
2023/06/19 05:03:54;;;;;;;6.22;4.75;;;;;;;;;;5052273;28;20441;-57
2023/06/19 05:06:24;;;;;;;7.88;5.40;;;;;;;;;;5052939;28;20191;-57
2023/06/19 05:08:50;;;;;;;8.05;5.20;;;;;;;;;;5052879;28;20049;-57
2023/06/19 05:11:16;;;;;;;11.90;6.57;;;;;;;;;;5052743;28;20060;-57
2023/06/19 05:13:42;;;;;;;9.02;6.78;;;;;;;;;;5052622;28;20232;-57
2023/06/19 05:16:08;;;;;;;9.57;7.13;;;;;;;;;;5049579;28;20435;-57
2023/06/19 05:18:34;;;;;;;11.20;7.30;;;;;;;;;;5052887;28;20041;-56
2023/06/19 05:21:00;;;;;;;9.55;7.05;;;;;;;;;;5052657;28;20099;-57
2023/06/19 05:23:27;;;;;;;9.80;7.97;;;;;;;;;;5050975;28;20052;-58
2023/06/19 05:25:53;;;;;;;9.35;7.30;;;;;;;;;;5049474;28;20127;-57
2023/06/19 05:28:19;;;;;;;10.90;8.90;;;;;;;;;;5052302;28;20136;-57
2023/06/19 05:30:45;;;;;;;13.80;9.20;;;;;;;;;;5050965;28;20058;-57
2023/06/19 05:33:15;;;;;;;12.45;9.65;;;;;;;;;;5053080;28;20068;-57
2023/06/19 05:35:43;;;;;;;14.55;9.82;;;;;;;;;;5048433;28;20452;-57
2023/06/19 05:38:09;;;;;;;11.38;9.55;;;;;;;;;;5049398;28;20049;-57
2023/06/19 05:40:35;;;;;;;13.63;9.35;;;;;;;;;;5052789;28;20127;-57
2023/06/19 05:43:01;;;;;;;11.85;9.40;;;;;;;;;;5049053;28;20053;-57
2023/06/19 05:45:27;;;;;;;14.77;9.23;;;;;;;;;;5046114;28;20384;-57
2023/06/19 05:47:53;;;;;;;10.40;8.30;;;;;;;;;;5047987;28;20527;-56
2023/06/19 05:50:19;;;;;;;9.02;6.95;;;;;;;;;;5052316;28;20057;-57
2023/06/19 05:52:45;;;;;;;9.02;5.82;;;;;;;;;;5052295;28;20053;-56
2023/06/19 05:55:12;;;;;;;6.50;5.03;;;;;;;;;;5051440;28;20072;-57
2023/06/19 05:57:38;;;;;;;7.90;6.68;;;;;;;;;;5052391;28;20392;-57
2023/06/19 06:00:05;;;;;;;7.15;5.80;;;;;;;;;;5051982;28;20140;-57
2023/06/19 06:02:31;;;;;;;8.95;6.20;;;;;;;;;;5052259;28;20799;-57
2023/06/19 06:04:58;;;;;;;8.73;7.07;;;;;;;;;;5050995;28;20511;-57
2023/06/19 06:07:24;;;;;;;7.80;6.50;;;;;;;;;;5052008;28;20064;-57
2023/06/19 06:09:50;;;;;;;8.55;7.50;;;;;;;;;;5051553;28;20106;-57
2023/06/19 06:12:17;;;;;;;10.98;8.75;;;;;;;;;;5049305;28;20085;-57
2023/06/19 06:14:43;;;;;;;10.88;8.75;;;;;;;;;;5050540;28;20048;-57
2023/06/19 06:17:10;;;;;;;11.80;8.25;;;;;;;;;;5051802;28;20041;-57
2023/06/19 06:19:36;;;;;;;10.48;9.32;;;;;;;;;;5035634;28;20111;-57
2023/06/19 06:22:03;;;;;;;13.63;9.63;;;;;;;;;;5049862;28;20053;-57
2023/06/19 06:24:29;;;;;;;12.48;10.23;;;;;;;;;;5052323;28;20053;-56
2023/06/19 06:26:55;;;;;;;13.05;10.68;;;;;;;;;;5034756;28;20106;-56
2023/06/19 06:29:21;;;;;;;13.65;11.63;;;;;;;;;;5051824;28;20045;-57
2023/06/19 06:31:47;;;;;;;15.80;11.85;;;;;;;;;;5048427;28;20135;-57
2023/06/19 06:34:13;;;;;;;15.57;12.70;;;;;;;;;;5049782;28;20380;-57
2023/06/19 06:36:40;;;;;;;17.90;13.23;;;;;;;;;;5049366;28;20444;-57
2023/06/19 06:39:06;;;;;;;19.05;14.35;;;;;;;;;;5058255;28;20047;-57
2023/06/19 06:41:32;;;;;;;19.92;15.70;;;;;;;;;;5050429;28;20057;-57
2023/06/19 06:43:58;;;;;;;20.73;16.00;;;;;;;;;;5050463;28;20053;-59
2023/06/19 06:46:24;;;;;;;22.95;16.38;;;;;;;;;;5031921;28;20059;-57
2023/06/19 06:48:50;;;;;;;21.33;15.32;;;;;;;;;;5052009;28;20052;-57
2023/06/19 06:51:16;;;;;;;21.58;13.93;;;;;;;;;;5050433;28;20041;-57
2023/06/19 06:53:42;;;;;;;20.98;15.35;;;;;;;;;;5048736;28;20056;-58
2023/06/19 06:56:08;;;;;;;22.15;16.20;;;;;;;;;;5050672;28;20041;-57
2023/06/19 06:58:34;;;;;;;20.30;14.07;;;;;;;;;;5051685;28;20052;-57
2023/06/19 07:01:00;;;;;;;21.33;15.27;;;;;;;;;;5051219;28;20940;-58
2023/06/19 07:03:31;;;;;;;17.52;12.38;;;;;;;;;;5049965;28;20045;-57
2023/06/19 07:05:58;;;;;;;19.65;13.25;;;;;;;;;;5050416;28;20120;-57
2023/06/19 07:08:24;;;;;;;21.02;13.18;;;;;;;;;;5050912;28;20045;-57
2023/06/19 07:10:50;;;;;;;19.83;13.70;;;;;;;;;;5046108;28;20053;-57
2023/06/19 07:13:16;;;;;;;18.30;13.43;;;;;;;;;;5050634;28;20053;-57
2023/06/19 07:15:42;;;;;;;18.02;12.10;;;;;;;;;;5050195;28;20055;-56
2023/06/19 07:18:08;;;;;;;19.77;14.10;;;;;;;;;;5051157;28;20053;-57
2023/06/19 07:20:34;;;;;;;19.00;13.63;;;;;;;;;;5049633;28;20412;-57
2023/06/19 07:23:00;;;;;;;15.52;11.63;;;;;;;;;;5039793;28;20385;-57
2023/06/19 07:25:26;;;;;;;17.25;12.00;;;;;;;;;;5051510;28;20056;-57
2023/06/19 07:27:53;;;;;;;17.27;12.20;;;;;;;;;;5050409;28;20055;-57
2023/06/19 07:30:19;;;;;;;17.67;11.75;;;;;;;;;;5050214;28;20071;-57
2023/06/19 07:32:45;;;;;;;14.98;10.88;;;;;;;;;;5050591;28;20126;-57
2023/06/19 07:35:11;;;;;;;15.20;11.63;;;;;;;;;;5050528;28;20084;-57
2023/06/19 07:37:37;;;;;;;12.82;10.15;;;;;;;;;;5050936;28;20120;-57
2023/06/19 07:40:03;;;;;;;14.30;10.23;;;;;;;;;;5031655;28;20040;-59
2023/06/19 07:42:29;;;;;;;13.68;9.25;;;;;;;;;;5049759;28;20052;-56
2023/06/19 07:44:55;;;;;;;12.85;8.82;;;;;;;;;;5051375;28;20055;-56
2023/06/19 07:47:21;;;;;;;11.02;8.10;;;;;;;;;;5050541;28;20392;-56
2023/06/19 07:49:48;;;;;;;16.10;9.30;;;;;;;;;;5048387;28;20060;-57
2023/06/19 07:52:14;;;;;;;11.77;8.15;;;;;;;;;;5028961;28;20036;-57
2023/06/19 07:54:58;;;;;;;12.05;8.13;;;;;;;;;;5049366;28;20071;-58
2023/06/19 07:57:25;;;;;;;10.02;5.28;;;;;;;;;;5050324;28;20505;-58
2023/06/19 07:59:51;;;;;;;7.50;4.70;;;;;;;;;;5054393;28;20132;-57
2023/06/19 08:02:18;;;;;;;8.35;4.82;;;20.80;99.90;;;;;;5032431;28;20902;-64
2023/06/19 08:04:44;;;;;;;9.98;4.40;;;;;;;;;;5051770;28;20048;-61
2023/06/19 08:07:10;;;;;;;7.55;3.72;;;;;;;;;;5053094;28;20051;-58
2023/06/19 08:09:36;;;;;;;7.07;4.07;;;;;;;;;;5054514;28;20164;-59
2023/06/19 08:12:02;;;;;;;6.22;2.97;;;;;;;;;;5052555;28;20052;-59
2023/06/19 08:14:29;;;;;;;4.95;3.20;;;;;;;;;;5053704;28;20041;-56
2023/06/19 08:16:55;;;;;;;4.28;2.90;;;;;;;;;;5052148;28;20136;-56
2023/06/19 08:19:21;;;;;;;5.38;3.50;;;;;;;;;;5051177;28;20048;-57
2023/06/19 08:21:47;;;;;;;7.38;4.18;;;;;;;;;;5053561;28;20496;-57
2023/06/19 08:24:13;;;;;;;6.22;4.43;;;21.70;99.90;;;;;;5053084;28;20053;-57
2023/06/19 08:26:39;;;;;;;10.82;4.60;;;;;;;;;;5053347;28;20190;-56
2023/06/19 08:29:05;;;;;;;6.95;5.13;;;;;;;;;;5053148;28;20037;-58
2023/06/19 08:31:31;;;;;;;9.63;6.05;;;;;;;;;;5017226;28;20146;-57
2023/06/19 08:33:57;;;;;;;10.60;5.90;;;;;;;;;;5053434;28;20085;-57
2023/06/19 08:36:23;;;;;;;9.18;6.47;;;;;;;;;;5053628;28;20052;-57
2023/06/19 08:38:51;;;;;;;11.20;7.10;;;;;;;;;;5034305;28;20049;-58
2023/06/19 08:41:18;;;;;;;14.10;7.95;;;;;;;;;;5014164;28;20120;-57
2023/06/19 08:43:45;;;;;;;14.93;8.20;;;;;;;;;;5025358;28;20046;-58
2023/06/19 08:46:12;;;;;;;13.85;8.25;;;;;;;;;;5030559;28;20394;-60
2023/06/19 08:48:39;;;;;;;11.02;7.88;;;;;;;;;;5031902;28;20056;-57
2023/06/19 08:51:05;;;;;;;17.80;9.93;;;;;;;;;;5015265;28;20099;-59
2023/06/19 08:53:35;;;;;;;15.35;10.10;;;;;;;;;;5033912;28;20066;-58
2023/06/19 08:56:04;;;;;;;;;;;21.10;99.90;;;;;;5033010;28;20053;-58
2023/06/19 08:58:30;;;;;;;15.98;10.80;;;;;;;;;;5032173;28;19983;-59
2023/06/19 09:00:59;;;;;;;15.00;10.07;;;;;;;;;;5022840;28;20378;-58
2023/06/19 09:03:25;;;;;;;16.05;11.20;;;;;;;;;;5032333;28;20454;-58
2023/06/19 09:05:51;;;;;;;15.60;10.90;;;;;;;;;;5031723;28;20128;-58
2023/06/19 09:08:21;;;;;;;18.95;11.60;;;;;;;;;;5030386;28;20095;-65
2023/06/19 09:11:00;;;;;;;15.65;11.38;;;;;;;;;;5016952;28;20033;-66
2023/06/19 09:13:28;;;;;;;19.08;12.00;;;;;;;;;;5014077;28;20054;-66
2023/06/19 09:15:59;;;;;;;16.45;11.85;;;;;;;;;;4994753;28;20042;-65
2023/06/19 09:18:25;;;;;;;15.95;11.18;;;;;;;;;;5004158;28;20060;-66
2023/06/19 09:20:53;;;;;;;16.27;12.98;;;;;;;;;;5032511;28;20133;-64
2023/06/19 09:23:20;;;;;;;16.15;12.60;;;;;;;;;;5032313;28;20571;-65
2023/06/19 09:25:46;;;;;;;15.55;11.68;;;;;;;;;;5048731;28;20075;-64
2023/06/19 09:28:26;;;;;;;15.43;10.25;;;;;;;;;;5014950;28;20076;-64
2023/06/19 09:30:56;;;;;;;13.88;8.85;;;21.20;99.90;;;;;;5032714;28;20477;-64
2023/06/19 09:33:27;;;;;;;9.65;7.03;;;21.20;99.90;;;;;;5031005;28;20045;-64
2023/06/19 09:35:54;;;;;;;14.18;8.15;;;21.40;99.90;;;;;;4999323;28;20050;-64
2023/06/19 09:38:21;;;;;;;8.93;7.72;;;;;;;;;;5038586;28;20500;-64
2023/06/19 09:40:48;;;;;;;12.20;8.10;;;;;;;;;;5022477;28;20049;-64
2023/06/19 09:46:56;;;;;;;10.45;7.93;;;;;;;;;;5037081;28;20436;-64
2023/06/19 09:49:23;;;;;;;11.57;8.05;;;;;;;;;;5028531;28;20040;-64
2023/06/19 09:51:50;;;;;;;13.02;8.10;;;;;;;;;;5015115;28;20053;-65
2023/06/19 09:54:17;;;;;;;11.48;8.15;;;22.10;99.90;;;;;;5005385;28;20064;-66
2023/06/19 09:56:43;;;;;;;12.82;7.78;;;;;;;;;;5013931;28;20045;-67
2023/06/19 09:59:10;;;;;;;10.63;7.05;;;22.40;99.90;;;;;;5010835;28;20053;-65
2023/06/19 10:01:37;;;;;;;11.32;7.63;;;22.40;99.90;;;;;;5018568;28;20100;-65
2023/06/19 10:04:07;;;;;;;13.40;7.90;;;22.60;99.90;;;;;;5026020;28;20041;-65
2023/06/19 10:06:42;;;;;;;11.35;7.57;;;22.30;99.90;;;;;;5039588;28;20481;-64
2023/06/19 10:09:09;;;;;;;23.83;10.18;;;22.30;99.90;;;;;;5013207;28;20508;-65
2023/06/19 10:11:51;;;;;;;14.95;8.55;;;;;;;;;;5020023;28;20269;-65
2023/06/19 10:14:18;;;;;;;13.63;8.45;;;22.20;99.90;;;;;;5016544;28;20046;-64
2023/06/19 10:16:45;;;;;;;11.57;8.18;;;;;;;;;;5010309;28;20136;-65
2023/06/19 10:19:15;;;;;;;12.32;8.52;;;;;;;;;;5017590;28;20222;-65
2023/06/19 10:21:47;;;;;;;12.07;8.93;;;;;;;;;;5017226;28;20512;-66
2023/06/19 10:24:18;;;;;;;13.65;9.07;;;21.90;99.90;;;;;;5030009;28;20120;-66
2023/06/19 10:26:44;;;;;;;12.32;8.88;;;;;;;;;;4998655;28;20456;-65
2023/06/19 10:29:17;;;;;;;12.57;8.70;;;;;;;;;;5031312;28;20109;-65
2023/06/19 10:31:44;;;;;;;15.20;9.00;;;;;;;;;;5027402;28;20052;-61
2023/06/19 10:34:10;;;;;;;11.82;9.20;;;;;;;;;;5016002;28;20123;-61
2023/06/19 10:36:36;;;;;;;15.30;9.60;;;;;;;;;;5026876;28;20107;-57
2023/06/19 10:39:02;;;;;;;13.88;10.25;;;;;;;;;;5051310;28;20120;-57
2023/06/19 10:41:28;;;;;;;14.80;11.60;;;;;;;;;;5051187;28;20056;-56
2023/06/19 10:44:00;;;;;;;15.85;10.82;;;21.70;99.90;;;;;;5047002;28;20381;-57
2023/06/19 10:46:30;;;;;;;15.13;11.52;;;;;;;;;;5025840;28;20083;-56
2023/06/19 10:49:00;;;;;;;15.38;10.90;;;;;;;;;;5043188;28;20064;-56
2023/06/19 10:51:26;;;;;;;;;;;;;;;;;;5040979;28;20049;-56
2023/06/19 10:53:55;;;;;;;21.23;12.10;;;21.80;99.90;;;;;;5043124;28;19970;-56
2023/06/19 10:56:21;;;;;;;14.63;11.63;;;;;;;;;;5041848;28;20107;-56
2023/06/19 10:58:47;;;;;;;18.75;12.63;;;;;;;;;;5041740;28;20059;-57
2023/06/19 11:01:14;;;;;;;17.80;13.00;;;;;;;;;;5041227;28;20362;-58
2023/06/19 11:03:41;;;;;;;16.35;11.52;;;;;;;;;;5058567;28;20048;-57
2023/06/19 11:06:06;;;;;;;16.55;11.55;;;21.90;99.90;;;;;;5048562;28;20076;-57
2023/06/19 11:08:32;;;;;;;16.95;11.18;;;;;;;;;;5051813;28;20083;-56
2023/06/19 11:10:58;;;;;;;15.38;10.45;;;;;;;;;;5049927;28;20045;-58
2023/06/19 11:13:24;;;;;;;14.55;10.20;;;22.00;99.90;;;;;;5033908;28;20060;-56
2023/06/19 11:15:51;;;;;;;14.32;9.55;;;;;;;;;;5048996;28;20477;-57
2023/06/19 11:18:18;;;;;;;14.55;9.80;;;22.40;99.90;;;;;;5051004;28;20049;-56
2023/06/19 11:20:53;;;;;;;12.57;8.60;;;22.80;99.90;;;;;;5049640;28;20052;-56
2023/06/19 11:23:30;;;;;;;12.57;8.50;;;23.20;99.90;;;;;;5034033;28;20481;-56
2023/06/19 11:26:03;;;;;;;15.00;8.93;;;23.30;99.90;;;;;;5037720;28;20385;-56
2023/06/19 11:28:29;;;;;;;13.93;9.70;;;;;;;;;;5051352;28;20047;-56
2023/06/19 11:31:02;;;;;;;12.10;8.40;;;23.60;99.90;;;;;;5050668;28;20488;-56
2023/06/19 11:33:30;;;;;;;12.63;8.05;;;23.70;99.90;;;;;;5065137;28;20060;-57
2023/06/19 11:36:00;;;;;;;10.60;6.40;;;23.60;99.90;;;;;;5037006;28;20568;-56
2023/06/19 11:38:27;;;;;;;12.02;7.20;;;23.70;99.90;;;;;;5054383;28;20053;-56
2023/06/19 11:40:55;;;;;;;11.05;7.45;;;24.00;99.90;;;;;;5052445;28;20084;-57
2023/06/19 11:43:30;;;;;;;13.15;8.27;;;24.00;99.90;;;;;;5054695;28;20052;-57
2023/06/19 11:46:07;;;;;;;16.27;9.85;;;24.20;99.90;;;;;;5054431;28;20068;-57
2023/06/19 11:48:37;;;;;;;13.07;9.15;;;24.10;99.90;;;;;;5064892;28;20132;-58
2023/06/19 11:51:03;;;;;;;13.80;8.37;;;;;;;;;;5050970;28;20049;-57
2023/06/19 11:53:29;;;;;;;13.30;8.60;;;24.30;99.90;;;;;;5055322;28;20280;-61
2023/06/19 11:55:56;;;;;;;13.02;9.27;;;24.50;99.90;;;;;;5051394;28;20059;-63
2023/06/19 11:58:22;;;;;;;11.15;9.55;;;;;;;;;;5050441;28;20064;-61
2023/06/19 12:00:48;;;;;;;13.02;9.25;;;24.70;99.90;;;;;;5054274;28;20483;-62
2023/06/19 12:03:15;;;;;;;12.40;9.57;;;;;;;;;;5053291;28;20128;-61
2023/06/19 12:05:41;;;;;;;17.77;8.73;;;;;;;;;;5052486;28;20041;-63
2023/06/19 12:08:07;;;;;;;12.93;8.95;;;;;;;;;;5052856;28;20037;-63
2023/06/19 12:10:36;;;;;;;13.65;8.93;;;24.90;99.90;;;;;;5051760;28;20180;-60
2023/06/19 12:13:02;;;;;;;14.57;9.65;;;;;;;;;;5050832;28;20052;-61
2023/06/19 12:15:28;;;;;;;13.50;10.25;;;;;;;;;;5035407;28;20124;-61
2023/06/19 12:17:57;;;;;;;16.63;11.32;;;;;;;;;;5053001;28;20179;-61
2023/06/19 12:20:24;;;;;;;18.03;9.20;;;;;;;;;;5052017;28;20129;-63
2023/06/19 12:22:49;;;;;;;15.13;9.63;;;24.60;99.90;;;;;;5051545;28;20302;-61
2023/06/19 12:25:15;;;;;;;15.10;8.60;;;;;;;;;;5019048;28;20041;-60
2023/06/19 12:27:41;;;;;;;17.13;9.70;;;;;;;;;;5053850;28;20063;-60
2023/06/19 12:30:08;;;;;;;12.35;8.43;;;24.40;99.90;;;;;;5053301;28;20049;-60
2023/06/19 12:32:34;;;;;;;16.77;9.40;;;24.60;99.90;;;;;;5053728;28;20041;-62
2023/06/19 12:35:00;;;;;;;13.20;7.78;;;;;;;;;;5052618;28;20044;-61
2023/06/19 12:37:26;;;;;;;12.60;8.70;;;;;;;;;;5052276;28;20476;-60
2023/06/19 12:39:52;;;;;;;14.57;8.90;;;;;;;;;;5052285;28;20045;-59
2023/06/19 12:42:18;;;;;;;15.00;9.02;;;;;;;;;;5052737;28;20056;-60
2023/06/19 12:44:44;;;;;;;13.73;9.13;;;;;;;;;;5053835;28;20049;-59
2023/06/19 12:47:10;;;;;;;13.57;8.55;;;;;;;;;;5033398;28;20118;-62
2023/06/19 12:49:37;;;;;;;12.77;8.30;;;;;;;;;;5053579;28;20049;-59
2023/06/19 12:52:03;;;;;;;15.15;9.13;;;25.00;99.90;;;;;;5030007;28;20064;-58
2023/06/19 12:54:29;;;;;;;15.25;9.52;;;25.00;99.90;;;;;;5031750;28;20049;-61
2023/06/19 12:56:55;;;;;;;15.70;8.23;;;;;;;;;;5033681;28;20045;-61
2023/06/19 12:59:21;;;;;;;11.05;7.72;;;;;;;;;;5050134;28;20049;-61
2023/06/19 13:01:47;;;;;;;15.48;8.35;;;;;;;;;;5034694;28;20041;-60
2023/06/19 13:04:13;;;;;;;10.55;7.05;;;;;;;;;;5049740;28;20077;-60
2023/06/19 13:06:40;;;;;;;13.68;9.15;;;;;;;;;;5050301;28;20052;-60
2023/06/19 13:09:07;;;;;;;11.88;7.47;;;;;;;;;;5052744;28;20041;-61
2023/06/19 13:11:34;;;;;;;12.90;7.82;;;25.10;99.90;;;;;;5051718;28;20137;-63
2023/06/19 13:14:00;;;;;;;14.43;9.13;;;;;;;;;;5018044;28;20088;-61
2023/06/19 13:16:26;;;;;;;15.48;8.43;;;;;;;;;;5052944;28;20063;-61
2023/06/19 13:18:52;;;;;;;12.05;6.53;;;;;;;;;;5051532;28;20064;-61
2023/06/19 13:21:18;;;;;;;11.25;7.50;;;;;;;;;;5049454;28;20045;-61
2023/06/19 13:23:44;;;;;;;11.73;6.13;;;;;;;;;;5052721;28;20053;-60
2023/06/19 13:26:11;;;;;;;12.63;8.07;;;;;;;;;;5052416;28;20052;-58
2023/06/19 13:28:37;;;;;;;8.80;6.38;;;;;;;;;;5044152;28;20094;-58
2023/06/19 13:31:03;;;;;;;12.95;8.13;;;25.40;99.90;;;;;;5050819;28;20056;-59
2023/06/19 13:33:29;;;;;;;10.55;7.40;;;25.40;99.90;;;;;;5052777;28;20125;-59
2023/06/19 13:35:55;;;;;;;9.70;5.82;;;;;;;;;;5035060;28;20525;-58
2023/06/19 13:38:21;;;;;;;10.20;6.00;;;;;;;;;;5035160;28;20473;-60
2023/06/19 13:40:47;;;;;;;10.32;6.75;;;25.30;99.90;;;;;;5033166;28;20045;-59
2023/06/19 13:43:13;;;;;;;9.90;6.75;;;;;;;;;;5031291;28;20049;-59
2023/06/19 13:45:39;;;;;;;11.13;7.68;;;25.60;99.90;;;;;;5031891;28;20049;-59
2023/06/19 13:48:07;;;;;;;10.13;6.43;;;25.60;99.90;;;;;;5031989;28;20124;-58
2023/06/19 13:50:33;;;;;;;9.27;5.85;;;25.60;99.90;;;;;;5032950;28;20473;-58
2023/06/19 13:53:00;;;;;;;8.35;6.20;;;25.50;99.90;;;;;;5029921;28;20052;-60
2023/06/19 13:55:27;;;;;;;15.52;7.15;;;;;;;;;;5024381;28;20049;-61
2023/06/19 13:57:53;;;;;;;13.63;7.28;;;;;;;;;;5024653;28;20542;-62
2023/06/19 14:00:19;;;;;;;10.90;7.03;;;25.70;99.90;;;;;;5022224;28;20140;-61
2023/06/19 14:02:45;;;;;;;10.43;5.57;;;;;;;;;;5035423;28;20060;-61
2023/06/19 14:05:14;;;;;;;11.18;6.03;;;;;;;;;;5023481;28;20512;-61
2023/06/19 14:07:44;;;;;;;9.88;6.50;;;26.00;99.90;;;;;;5022082;28;20048;-61
2023/06/19 14:10:09;;;;;;;;;;;25.70;99.90;;;;;;5025331;28;20045;-62
2023/06/19 14:12:35;;;;;;;10.07;5.45;;;;;;;;;;5024224;28;19927;-63
2023/06/19 14:15:01;;;;;;;10.43;6.57;;;;;;;;;;5026784;28;20060;-60
2023/06/19 14:17:27;;;;;;;10.30;6.10;;;;;;;;;;5002610;28;20054;-61